createdAt,value
2022-08-24T00:02:06.347Z,1.40
2022-08-24T00:04:35.640Z,1.60
2022-08-24T00:07:05.688Z,1.70
2022-08-24T00:09:41.536Z,1.48
2022-08-24T00:12:11.361Z,1.42
2022-08-24T00:14:43.328Z,1.42
2022-08-24T00:17:11.905Z,1.42
2022-08-24T00:19:40.517Z,1.48
2022-08-24T00:22:10.063Z,1.45
2022-08-24T00:24:38.717Z,1.30
2022-08-24T00:27:07.742Z,1.60
2022-08-24T00:29:38.139Z,1.65
2022-08-24T00:32:07.099Z,1.50
2022-08-24T00:34:36.416Z,1.67
2022-08-24T00:37:05.213Z,1.38
2022-08-24T00:39:33.597Z,1.55
2022-08-24T00:42:01.968Z,1.40
2022-08-24T00:44:30.318Z,1.40
2022-08-24T00:47:03.221Z,1.58
2022-08-24T00:49:37.499Z,1.58
2022-08-24T00:52:14.844Z,1.35
2022-08-24T00:54:46.882Z,1.42
2022-08-24T00:57:19.161Z,1.40
2022-08-24T00:59:56.690Z,1.48
2022-08-24T01:02:32.647Z,1.75
2022-08-24T01:05:05.364Z,1.50
2022-08-24T01:07:35.407Z,1.50
2022-08-24T01:10:08.352Z,1.60
2022-08-24T01:12:38.683Z,1.38
2022-08-24T01:15:10.553Z,1.42
2022-08-24T01:17:58.240Z,1.40
2022-08-24T01:20:27.125Z,1.50
2022-08-24T01:23:04.885Z,1.63
2022-08-24T01:25:37.482Z,1.30
2022-08-24T01:28:13.352Z,1.40
2022-08-24T01:30:44.807Z,1.60
2022-08-24T01:33:24.963Z,1.60
2022-08-24T01:35:58.564Z,1.50
2022-08-24T01:38:28.311Z,1.70
2022-08-24T01:41:03.109Z,1.40
2022-08-24T01:43:32.241Z,1.60
2022-08-24T01:46:07.510Z,1.60
2022-08-24T01:48:35.896Z,1.70
2022-08-24T01:51:04.710Z,1.67
2022-08-24T01:53:33.956Z,1.70
2022-08-24T01:56:04.274Z,1.60
2022-08-24T01:58:33.290Z,1.40
2022-08-24T02:01:01.932Z,1.60
2022-08-24T02:03:31.071Z,1.45
2022-08-24T02:06:01.511Z,1.63
2022-08-24T02:08:34.375Z,1.40
2022-08-24T02:11:06.542Z,1.60
2022-08-24T02:13:35.510Z,1.77
2022-08-24T02:16:05.569Z,1.27
2022-08-24T02:18:36.371Z,1.67
2022-08-24T02:21:05.035Z,1.42
2022-08-24T02:23:33.722Z,1.55
2022-08-24T02:26:02.134Z,1.70
2022-08-24T02:28:32.503Z,1.50
2022-08-24T02:31:01.231Z,1.50
2022-08-24T02:33:31.909Z,1.70
2022-08-24T02:36:00.446Z,1.50
2022-08-24T02:38:29.010Z,1.50
2022-08-24T02:40:57.974Z,1.50
2022-08-24T02:43:26.944Z,1.40
2022-08-24T02:45:58.898Z,1.58
2022-08-24T02:48:27.863Z,1.52
2022-08-24T02:50:56.555Z,1.80
2022-08-24T02:53:25.185Z,1.48
2022-08-24T02:55:53.497Z,1.60
2022-08-24T02:58:21.887Z,1.73
2022-08-24T03:00:50.746Z,1.50
2022-08-24T03:03:23.000Z,1.52
2022-08-24T03:05:51.897Z,1.50
2022-08-24T03:08:23.203Z,1.60
2022-08-24T03:10:52.810Z,1.75
2022-08-24T03:13:21.290Z,1.73
2022-08-24T03:15:49.873Z,1.50
2022-08-24T03:18:18.302Z,1.80
2022-08-24T03:20:55.478Z,1.70
2022-08-24T03:23:24.578Z,1.85
2022-08-24T03:25:53.057Z,1.80
2022-08-24T03:28:24.094Z,1.67
2022-08-24T03:30:52.683Z,1.70
2022-08-24T03:33:21.934Z,1.42
2022-08-24T03:35:50.361Z,1.70
2022-08-24T03:38:21.257Z,1.63
2022-08-24T03:40:50.889Z,1.55
2022-08-24T03:43:37.110Z,1.67
2022-08-24T03:46:07.871Z,1.92
2022-08-24T03:48:39.097Z,1.40
2022-08-24T03:51:08.258Z,1.70
2022-08-24T03:53:42.364Z,1.70
2022-08-24T03:56:11.987Z,1.77
2022-08-24T03:58:42.537Z,1.90
2022-08-24T04:01:12.355Z,2.00
2022-08-24T04:03:43.862Z,1.88
2022-08-24T04:06:15.894Z,1.80
2022-08-24T04:08:45.854Z,1.80
2022-08-24T04:11:16.713Z,1.80
2022-08-24T04:13:49.629Z,1.70
2022-08-24T04:16:20.152Z,1.70
2022-08-24T04:18:54.051Z,1.80
2022-08-24T04:21:25.062Z,2.20
2022-08-24T04:23:55.419Z,2.00
2022-08-24T04:26:44.085Z,1.80
2022-08-24T04:29:17.582Z,1.75
2022-08-24T04:31:54.384Z,2.05
2022-08-24T04:34:24.150Z,1.80
2022-08-24T04:36:53.009Z,2.05
2022-08-24T04:39:22.798Z,2.00
2022-08-24T04:42:20.855Z,2.15
2022-08-24T04:44:50.402Z,2.05
2022-08-24T04:47:20.995Z,1.90
2022-08-24T04:49:49.622Z,1.90
2022-08-24T04:52:18.462Z,2.10
2022-08-24T04:54:48.227Z,1.80
2022-08-24T04:57:21.413Z,1.90
2022-08-24T04:59:49.998Z,1.90
2022-08-24T05:02:18.849Z,1.77
2022-08-24T05:04:50.302Z,1.90
2022-08-24T05:07:19.674Z,1.85
2022-08-24T05:09:52.456Z,1.90
2022-08-24T05:12:21.817Z,2.10
2022-08-24T05:15:02.554Z,1.90
2022-08-24T05:17:36.773Z,1.90
2022-08-24T05:20:06.598Z,1.77
2022-08-24T05:22:35.058Z,2.03
2022-08-24T05:25:06.715Z,2.20
2022-08-24T05:27:36.122Z,1.90
2022-08-24T05:30:06.070Z,2.03
2022-08-24T05:32:34.450Z,2.05
2022-08-24T05:35:04.740Z,2.08
2022-08-24T05:37:36.319Z,2.10
2022-08-24T05:40:19.856Z,2.03
2022-08-24T05:42:51.684Z,2.10
2022-08-24T05:45:20.727Z,2.20
2022-08-24T05:47:51.500Z,2.15
2022-08-24T05:50:55.728Z,2.00
2022-08-24T05:53:26.460Z,2.30
2022-08-24T05:55:56.255Z,2.30
2022-08-24T05:58:30.654Z,2.00
2022-08-24T06:01:00.894Z,2.08
2022-08-24T06:03:29.379Z,2.30
2022-08-24T06:05:58.240Z,2.13
2022-08-24T06:08:26.702Z,2.08
2022-08-24T06:10:56.704Z,2.20
2022-08-24T06:13:25.105Z,2.33
2022-08-24T06:16:20.973Z,2.30
2022-08-24T06:18:51.942Z,2.10
2022-08-24T06:21:23.012Z,2.00
2022-08-24T06:23:52.116Z,2.15
2022-08-24T06:26:40.170Z,2.08
2022-08-24T06:29:09.530Z,2.15
2022-08-24T06:31:47.147Z,2.10
2022-08-24T06:34:17.955Z,2.30
2022-08-24T06:36:47.580Z,2.20
2022-08-24T06:39:16.046Z,2.15
2022-08-24T06:41:48.275Z,2.30
2022-08-24T06:44:29.922Z,2.08
2022-08-24T06:47:06.516Z,2.20
2022-08-24T06:49:37.204Z,2.20
2022-08-24T06:52:06.178Z,2.20
2022-08-24T06:54:34.721Z,2.20
2022-08-24T06:57:06.786Z,2.50
2022-08-24T06:59:35.132Z,2.10
2022-08-24T07:02:03.651Z,2.20
2022-08-24T07:04:32.512Z,2.20
2022-08-24T07:07:13.071Z,2.17
2022-08-24T07:09:45.473Z,2.20
2022-08-24T07:12:15.237Z,2.10
2022-08-24T07:14:43.599Z,2.17
2022-08-24T07:17:12.152Z,2.00
2022-08-24T07:19:41.298Z,2.00
2022-08-24T07:22:10.569Z,2.20
2022-08-24T07:24:39.201Z,2.10
2022-08-24T07:27:10.600Z,1.90
2022-08-24T07:29:56.442Z,1.90
2022-08-24T07:32:30.093Z,1.70
2022-08-24T07:34:58.716Z,2.03
2022-08-24T07:37:40.159Z,2.00
2022-08-24T07:40:10.493Z,2.20
2022-08-24T07:42:40.909Z,2.03
2022-08-24T07:45:15.531Z,1.95
2022-08-24T07:47:54.970Z,1.88
2022-08-24T07:50:37.326Z,2.20
2022-08-24T07:53:09.722Z,1.60
2022-08-24T07:55:46.150Z,2.28
2022-08-24T07:58:15.044Z,1.95
2022-08-24T08:00:48.300Z,2.22
2022-08-24T08:03:16.779Z,2.25
2022-08-24T08:05:46.919Z,2.10
2022-08-24T08:08:15.948Z,2.30
2022-08-24T08:10:47.253Z,2.17
2022-08-24T08:13:15.733Z,2.50
2022-08-24T08:15:44.225Z,2.20
2022-08-24T08:18:14.632Z,2.40
2022-08-24T08:20:43.596Z,2.50
2022-08-24T08:23:30.564Z,2.30
2022-08-24T08:26:16.559Z,2.10
2022-08-24T08:29:05.233Z,2.23
2022-08-24T08:31:37.737Z,2.50
2022-08-24T08:34:09.781Z,2.13
2022-08-24T08:36:40.241Z,2.30
2022-08-24T08:39:10.732Z,2.60
2022-08-24T08:42:05.212Z,2.33
2022-08-24T08:44:53.739Z,2.05
2022-08-24T08:47:43.688Z,2.22
2022-08-24T08:50:21.857Z,2.00
2022-08-24T08:53:24.594Z,2.30
2022-08-24T08:56:04.442Z,2.33
2022-08-24T08:58:51.123Z,2.20
2022-08-24T09:01:46.644Z,2.10
2022-08-24T09:04:52.129Z,2.40
2022-08-24T09:07:34.044Z,2.15
2022-08-24T09:10:32.589Z,2.10
2022-08-24T09:13:17.238Z,2.03
2022-08-24T09:16:10.903Z,2.10
2022-08-24T09:18:54.804Z,2.20
2022-08-24T09:21:46.472Z,2.10
2022-08-24T09:24:37.335Z,2.22
2022-08-24T09:27:26.175Z,2.10
2022-08-24T09:30:08.989Z,2.20
2022-08-24T09:32:51.093Z,2.10
2022-08-24T09:35:27.217Z,2.10
2022-08-24T09:38:01.156Z,2.10
2022-08-24T09:40:38.055Z,2.10
2022-08-24T09:43:39.147Z,2.55
2022-08-24T09:46:52.253Z,2.15
2022-08-24T09:50:16.957Z,2.10
2022-08-24T09:53:10.890Z,2.25
2022-08-24T09:56:08.372Z,2.10
2022-08-24T09:58:48.555Z,2.05
2022-08-24T10:01:27.146Z,2.05
2022-08-24T10:04:09.886Z,2.42
2022-08-24T10:06:54.637Z,2.60
2022-08-24T10:09:51.049Z,2.10
2022-08-24T10:12:34.727Z,2.25
2022-08-24T10:15:08.940Z,2.10
2022-08-24T10:17:48.491Z,2.20
2022-08-24T10:20:23.786Z,2.10
2022-08-24T10:23:04.503Z,1.90
2022-08-24T10:25:40.053Z,1.83
2022-08-24T10:28:34.943Z,1.80
2022-08-24T10:33:57.134Z,1.70
2022-08-24T10:36:46.286Z,1.60
2022-08-24T10:39:41.454Z,1.80
2022-08-24T10:43:01.908Z,1.98
2022-08-24T10:46:02.276Z,1.80
2022-08-24T10:49:03.869Z,1.80
2022-08-24T10:51:50.288Z,1.95
2022-08-24T10:54:20.460Z,2.00
2022-08-24T10:56:58.812Z,2.22
2022-08-24T10:59:32.152Z,2.08
2022-08-24T11:02:09.511Z,1.70
2022-08-24T11:04:41.809Z,1.95
2022-08-24T11:07:18.714Z,1.60
2022-08-24T11:09:52.095Z,1.90
2022-08-24T11:12:28.410Z,1.65
2022-08-24T11:14:59.690Z,1.90
2022-08-24T11:17:31.991Z,1.98
2022-08-24T11:20:00.394Z,1.80
2022-08-24T11:22:37.726Z,1.80
2022-08-24T11:25:14.752Z,1.90
2022-08-24T11:27:47.232Z,1.88
2022-08-24T11:30:24.774Z,1.90
2022-08-24T11:32:56.456Z,1.77
2022-08-24T11:35:27.795Z,1.90
2022-08-24T11:37:59.212Z,1.95
2022-08-24T11:40:30.518Z,1.88
2022-08-24T11:43:12.888Z,2.08
2022-08-24T11:45:46.696Z,1.80
2022-08-24T11:48:29.699Z,1.70
2022-08-24T11:51:05.097Z,1.80
2022-08-24T11:53:46.508Z,1.58
2022-08-24T11:56:26.345Z,2.00
2022-08-24T11:59:02.655Z,1.83
2022-08-24T12:01:43.557Z,1.90
2022-08-24T12:04:36.375Z,1.80
2022-08-24T12:07:18.359Z,1.80
2022-08-24T12:10:02.751Z,2.25
2022-08-24T12:12:38.718Z,1.80
2022-08-24T12:15:12.889Z,1.92
2022-08-24T12:17:52.223Z,1.70
2022-08-24T12:20:31.833Z,1.60
2022-08-24T12:23:08.706Z,1.70
2022-08-24T12:25:55.353Z,2.10
2022-08-24T12:28:28.875Z,1.55
2022-08-24T12:31:03.881Z,1.77
2022-08-24T12:33:37.688Z,1.80
2022-08-24T12:36:22.360Z,1.90
2022-08-24T12:39:10.306Z,1.65
2022-08-24T12:41:51.133Z,1.70
2022-08-24T12:44:25.470Z,1.60
2022-08-24T12:46:54.775Z,1.60
2022-08-24T12:49:30.524Z,1.67
2022-08-24T12:52:46.957Z,1.60
2022-08-24T12:55:28.897Z,1.50
2022-08-24T12:58:30.920Z,1.60
2022-08-24T13:00:57.359Z,1.70
2022-08-24T13:03:35.851Z,1.50
2022-08-24T13:06:07.024Z,1.60
2022-08-24T13:08:38.260Z,1.55
2022-08-24T13:11:15.695Z,1.70
2022-08-24T13:13:48.642Z,1.63
2022-08-24T13:16:47.470Z,1.90
2022-08-24T13:19:19.151Z,1.75
2022-08-24T13:21:55.864Z,1.70
2022-08-24T13:24:50.184Z,1.67
2022-08-24T13:30:31.862Z,1.55
2022-08-24T13:33:13.396Z,1.60
2022-08-24T13:35:58.521Z,1.40
2022-08-24T13:38:52.317Z,1.27
2022-08-24T13:41:45.546Z,1.50
2022-08-24T13:44:29.141Z,1.40
2022-08-24T13:47:09.215Z,1.38
2022-08-24T13:50:01.682Z,1.50
2022-08-24T13:52:41.341Z,1.30
2022-08-24T13:55:33.790Z,1.33
2022-08-24T13:58:13.916Z,1.30
2022-08-24T14:00:48.445Z,1.40
2022-08-24T14:03:52.049Z,1.55
2022-08-24T14:06:31.302Z,1.30
2022-08-24T14:09:18.598Z,1.38
2022-08-24T14:12:05.182Z,1.50
2022-08-24T14:14:56.657Z,1.20
2022-08-24T14:17:55.069Z,1.20
2022-08-24T14:20:44.637Z,1.20
2022-08-24T14:23:28.117Z,1.20
2022-08-24T14:26:29.465Z,1.20
2022-08-24T14:29:33.930Z,1.33
2022-08-24T14:35:04.930Z,1.25
2022-08-24T14:37:50.550Z,1.40
2022-08-24T14:40:30.712Z,1.25
2022-08-24T14:43:25.056Z,1.50
2022-08-24T14:46:04.377Z,1.42
2022-08-24T14:48:41.008Z,1.40
2022-08-24T14:51:16.318Z,1.40
2022-08-24T14:54:00.399Z,1.30
2022-08-24T14:56:48.265Z,1.60
2022-08-24T14:59:31.514Z,1.30
2022-08-24T15:02:35.298Z,1.30
2022-08-24T15:05:13.755Z,1.20
2022-08-24T15:07:53.034Z,1.10
2022-08-24T15:10:26.947Z,1.30
2022-08-24T15:13:03.597Z,1.38
2022-08-24T15:15:39.494Z,1.50
2022-08-24T15:18:24.539Z,1.10
2022-08-24T15:21:06.226Z,1.20
2022-08-24T15:23:51.567Z,1.20
2022-08-24T15:26:30.963Z,1.30
2022-08-24T15:29:00.274Z,1.13
2022-08-24T15:31:30.417Z,1.40
2022-08-24T15:34:01.190Z,1.35
2022-08-24T15:36:32.992Z,1.20
2022-08-24T15:39:01.734Z,1.17
2022-08-24T15:41:35.551Z,1.17
2022-08-24T15:44:07.463Z,1.30
2022-08-24T15:46:39.306Z,1.30
2022-08-24T15:49:15.432Z,1.42
2022-08-24T15:51:49.346Z,1.40
2022-08-24T15:54:31.948Z,1.02
2022-08-24T15:57:04.445Z,1.08
2022-08-24T15:59:48.200Z,1.30
2022-08-24T16:02:26.176Z,1.30
2022-08-24T16:05:02.977Z,1.30
2022-08-24T16:07:34.840Z,1.30
2022-08-24T16:10:09.174Z,1.27
2022-08-24T16:12:39.482Z,1.40
2022-08-24T16:15:17.950Z,1.40
2022-08-24T16:17:51.281Z,1.55
2022-08-24T16:20:33.194Z,1.30
2022-08-24T16:23:05.358Z,1.60
2022-08-24T16:25:39.850Z,1.50
2022-08-24T16:28:32.997Z,1.70
2022-08-24T16:31:03.119Z,1.60
2022-08-24T16:33:46.910Z,1.40
2022-08-24T16:36:18.845Z,1.50
2022-08-24T16:38:49.971Z,1.80
2022-08-24T16:41:21.283Z,1.60
2022-08-24T16:43:51.226Z,1.70
2022-08-24T16:46:22.363Z,1.70
2022-08-24T16:48:50.877Z,1.77
2022-08-24T16:51:19.215Z,1.83
2022-08-24T16:53:47.521Z,1.70
2022-08-24T16:56:16.921Z,1.70
2022-08-24T16:58:47.612Z,1.75
2022-08-24T17:01:18.099Z,1.98
2022-08-24T17:03:46.996Z,1.70
2022-08-24T17:06:18.033Z,1.60
2022-08-24T17:08:47.480Z,1.70
2022-08-24T17:11:16.612Z,1.90
2022-08-24T17:13:52.080Z,1.70
2022-08-24T17:16:22.749Z,1.90
2022-08-24T17:18:51.330Z,1.80
2022-08-24T17:21:20.316Z,1.90
2022-08-24T17:23:50.302Z,1.80
2022-08-24T17:26:21.871Z,1.90
2022-08-24T17:28:54.399Z,1.85
2022-08-24T17:31:24.988Z,1.85
2022-08-24T17:33:53.962Z,1.80
2022-08-24T17:36:24.360Z,1.70
2022-08-24T17:38:56.157Z,1.70
2022-08-24T17:41:25.825Z,1.77
2022-08-24T17:43:55.314Z,1.92
2022-08-24T17:46:25.283Z,2.08
2022-08-24T17:48:53.682Z,1.70
2022-08-24T17:51:22.053Z,1.90
2022-08-24T17:53:50.429Z,1.90
2022-08-24T17:56:19.841Z,2.00
2022-08-24T17:59:05.947Z,2.00
2022-08-24T18:01:36.147Z,2.20
2022-08-24T18:04:05.159Z,2.15
2022-08-24T18:06:34.050Z,2.33
2022-08-24T18:09:04.989Z,2.30
2022-08-24T18:11:34.168Z,2.28
2022-08-24T18:14:02.873Z,2.38
2022-08-24T18:16:32.098Z,2.10
2022-08-24T18:19:02.298Z,2.70
2022-08-24T18:21:30.716Z,2.85
2022-08-24T18:24:01.366Z,2.15
2022-08-24T18:26:31.161Z,2.28
2022-08-24T18:29:08.858Z,2.70
2022-08-24T18:31:37.279Z,2.05
2022-08-24T18:34:07.445Z,2.38
2022-08-24T18:36:36.036Z,2.30
2022-08-24T18:39:07.174Z,2.28
2022-08-24T18:41:39.207Z,2.55
2022-08-24T18:44:13.395Z,2.63
2022-08-24T18:46:43.913Z,2.65
2022-08-24T18:49:13.619Z,2.28
2022-08-24T18:51:42.357Z,2.28
2022-08-24T18:54:13.033Z,2.30
2022-08-24T18:56:41.346Z,2.20
2022-08-24T18:59:12.415Z,2.42
2022-08-24T19:01:55.331Z,2.30
2022-08-24T19:04:29.516Z,2.17
2022-08-24T19:07:01.958Z,2.33
2022-08-24T19:09:34.161Z,2.20
2022-08-24T19:12:03.764Z,2.10
2022-08-24T19:14:32.634Z,2.22
2022-08-24T19:17:01.032Z,1.98
2022-08-24T19:19:30.818Z,2.00
2022-08-24T19:21:59.520Z,2.00
2022-08-24T19:24:32.210Z,2.20
2022-08-24T19:27:01.724Z,1.83
2022-08-24T19:29:54.727Z,1.95
2022-08-24T19:32:22.999Z,2.00
2022-08-24T19:34:53.265Z,2.20
2022-08-24T19:37:22.459Z,2.08
2022-08-24T19:39:51.362Z,2.00
2022-08-24T19:42:20.382Z,2.13
2022-08-24T19:45:06.425Z,1.90
2022-08-24T19:47:35.026Z,2.00
2022-08-24T19:50:07.176Z,2.25
2022-08-24T19:52:36.374Z,2.00
2022-08-24T19:55:06.309Z,1.98
2022-08-24T19:57:44.431Z,1.75
2022-08-24T20:00:26.407Z,1.88
2022-08-24T20:02:56.831Z,2.20
2022-08-24T20:05:28.834Z,2.00
2022-08-24T20:07:59.140Z,2.00
2022-08-24T20:10:28.345Z,1.90
2022-08-24T20:12:56.786Z,1.85
2022-08-24T20:15:25.493Z,1.73
2022-08-24T20:17:57.119Z,1.92
2022-08-24T20:20:29.061Z,2.03
2022-08-24T20:23:00.376Z,2.10
2022-08-24T20:25:28.834Z,1.88
2022-08-24T20:28:25.591Z,1.95
2022-08-24T20:30:47.519Z,2.00
2022-08-24T20:33:21.022Z,1.73
2022-08-24T20:35:50.847Z,2.00
2022-08-24T20:38:21.269Z,1.95
2022-08-24T20:40:51.300Z,2.00
2022-08-24T20:43:19.943Z,1.80
2022-08-24T20:45:51.446Z,1.90
2022-08-24T20:48:25.690Z,1.85
2022-08-24T20:50:55.454Z,1.90
2022-08-24T20:53:23.866Z,1.95
2022-08-24T20:55:52.326Z,1.80
2022-08-24T20:58:22.424Z,2.05
2022-08-24T21:00:51.090Z,1.67
2022-08-24T21:03:19.880Z,1.98
2022-08-24T21:05:51.203Z,2.08
2022-08-24T21:08:21.117Z,1.90
2022-08-24T21:10:49.581Z,1.92
2022-08-24T21:13:18.121Z,1.85
2022-08-24T21:15:47.841Z,1.83
2022-08-24T21:18:16.482Z,1.65
2022-08-24T21:21:03.215Z,1.80
2022-08-24T21:23:35.053Z,1.98
2022-08-24T21:26:04.779Z,1.92
2022-08-24T21:28:34.498Z,2.00
2022-08-24T21:31:06.191Z,1.92
2022-08-24T21:33:52.783Z,2.05
2022-08-24T21:36:23.318Z,2.10
2022-08-24T21:38:53.521Z,2.10
2022-08-24T21:41:22.901Z,2.10
2022-08-24T21:43:51.669Z,2.33
2022-08-24T21:46:20.132Z,2.20
2022-08-24T21:48:48.508Z,2.40
2022-08-24T21:51:16.966Z,2.47
2022-08-24T21:53:45.301Z,2.10
2022-08-24T21:56:24.329Z,2.30
2022-08-24T21:58:53.419Z,2.17
2022-08-24T22:01:21.870Z,2.55
2022-08-24T22:03:50.481Z,2.17
2022-08-24T22:06:18.926Z,2.20
2022-08-24T22:08:47.382Z,2.13
2022-08-24T22:11:20.064Z,2.20
2022-08-24T22:13:48.989Z,2.30
2022-08-24T22:16:17.894Z,2.08
2022-08-24T22:18:46.247Z,1.90
2022-08-24T22:21:17.454Z,2.10
2022-08-24T22:23:46.839Z,2.05
2022-08-24T22:26:15.273Z,1.90
2022-08-24T22:28:44.982Z,2.17
2022-08-24T22:31:18.693Z,2.15
2022-08-24T22:33:47.126Z,2.20
2022-08-24T22:36:17.629Z,2.00
2022-08-24T22:38:46.579Z,2.05
2022-08-24T22:41:15.486Z,1.80
2022-08-24T22:44:02.804Z,1.80
2022-08-24T22:46:31.185Z,2.10
2022-08-24T22:49:00.915Z,1.98
2022-08-24T22:51:30.526Z,1.80
2022-08-24T22:53:59.254Z,2.30
2022-08-24T22:56:30.799Z,1.75
2022-08-24T22:59:00.554Z,2.00
2022-08-24T23:01:31.182Z,1.85
2022-08-24T23:04:01.544Z,1.80
2022-08-24T23:06:30.385Z,1.95
2022-08-24T23:08:59.402Z,1.70
2022-08-24T23:11:28.054Z,1.63
2022-08-24T23:13:58.363Z,1.80
2022-08-24T23:16:28.805Z,1.73
2022-08-24T23:19:14.864Z,1.83
2022-08-24T23:21:43.449Z,1.90
2022-08-24T23:24:12.794Z,1.70
2022-08-24T23:26:42.666Z,1.80
2022-08-24T23:29:13.410Z,1.70
2022-08-24T23:31:44.253Z,1.63
2022-08-24T23:34:13.147Z,1.80
2022-08-24T23:36:42.254Z,1.98
2022-08-24T23:39:12.210Z,1.77
2022-08-24T23:41:44.265Z,1.60
2022-08-24T23:44:16.714Z,1.60
2022-08-24T23:46:47.028Z,1.75
2022-08-24T23:49:20.807Z,1.67
2022-08-24T23:51:50.190Z,1.70
2022-08-24T23:54:21.460Z,1.70
2022-08-24T23:56:50.712Z,1.70
2022-08-24T23:59:21.373Z,1.50
